Tuesday, January 22, 2019, 9:22 PM GMT
Back to Local

CXBO, Beauport CS, Que.

Location: , , Canada Lat: 46.833
Local Time: 9:22 PM GMT (21:22 GMT) Lon: -71.2
Time Zone: GMT Elev: 32 ft

Show me the last for .
Show Coded

Time T Td Feel RH Dir Speed Gust Alt SLP Vis Weather Sky Remarks
2019-01-22 21:00 - - - 0 230° 18 25 - - 0 Peak wind: 25 mph (22 kts) from 230° at 55 min
2019-01-22 20:00 - - - 0 230° 16 - - - 0 Peak wind: 25 mph (22 kts) from 230° at 42 min
2019-01-22 19:00 - - - 0 240° 16 22 - - 0 Peak wind: 25 mph (22 kts) from 220° at 11 min
2019-01-22 18:00 - - - 0 230° 16 23 - - 0 Peak wind: 23 mph (20 kts) from 220° at 54 min
2019-01-22 17:00 - - - 0 230° 15 21 - - 0 Peak wind: 20 mph (18 kts) from 230° at 53 min
2019-01-22 16:00 - - - 0 240° 16 - - - 0 Peak wind: 21 mph (19 kts) from 240° at 10 min
2019-01-22 15:00 - - - 0 240° 16 - - - 0 Peak wind: 24 mph (21 kts) from 240° at 37 min
2019-01-22 14:00 - - - 0 240° 13 - - - 0 Peak wind: 21 mph (19 kts) from 260° at 16 min
2019-01-22 13:00 - - - 0 250° 16 23 - - 0 Peak wind: 23 mph (20 kts) from 250° at 54 min
2019-01-22 12:00 - - - 0 260° 13 - - - 0 Peak wind: 19 mph (17 kts) from 250° at 46 min
2019-01-22 10:00 - - - 0 250° 16 - - - 0 Peak wind: 21 mph (19 kts) from 250° at 58 min
2019-01-22 09:00 - - - 0 250° 14 - - - 0 Peak wind: 19 mph (17 kts) from 230° at 44 min
2019-01-22 08:00 - - - 0 250° 12 - - - 0 Peak wind: 20 mph (18 kts) from 300° at 13 min
2019-01-22 07:00 - - - 0 300° 12 18 - - 0 Peak wind: 24 mph (21 kts) from 320° at 23 min
2019-01-22 06:00 - - - 0 280° 10 17 - - 0 Peak wind: 25 mph (22 kts) from 290° at 39 min
2019-01-22 05:00 - - - 0 290° 13 18 - - 0 Peak wind: 19 mph (17 kts) from 290° at 39 min
2019-01-22 03:00 - - - 0 300° 12 17 - - 0 Peak wind: 20 mph (18 kts) from 340° at 07 min
2019-01-22 02:00 - - - 0 320° 14 21 - - 0 Peak wind: 21 mph (19 kts) from 310° at 36 min
2019-01-22 01:00 - - - 0 320° 13 18 - - 0 Peak wind: 19 mph (17 kts) from 310° at 34 min
2019-01-22 00:00 - - - 0 330° 12 20 - - 0 Peak wind: 19 mph (17 kts) from 340° at 51 min
2019-01-21 23:00 - - - 0 330° 12 18 - - 0 Peak wind: 25 mph (22 kts) from 350° at 06 min
2019-01-21 22:00 - - - 0 320° 9 21 - - 0 Peak wind: 20 mph (18 kts) from 340° at 57 min

Support USWX by starting your Amazon purchase here.